createdAt,value
2016-06-02T00:00:28.504Z,996.21
2016-06-02T00:01:28.538Z,996.2
2016-06-02T00:02:28.588Z,996.16
2016-06-02T00:03:28.621Z,996.18
2016-06-02T00:04:28.671Z,996.21
2016-06-02T00:05:28.704Z,996.21
2016-06-02T00:06:28.739Z,996.19
2016-06-02T00:07:28.788Z,996.23
2016-06-02T00:08:28.823Z,996.25
2016-06-02T00:09:28.873Z,996.21
2016-06-02T00:10:28.906Z,996.22
2016-06-02T00:11:29.002Z,996.21
2016-06-02T00:12:28.990Z,996.23
2016-06-02T00:13:29.039Z,996.26
2016-06-02T00:14:29.073Z,996.23
2016-06-02T00:15:29.106Z,996.27
2016-06-02T00:16:29.156Z,996.3
2016-06-02T00:17:29.206Z,996.3
2016-06-02T00:18:29.272Z,996.3
2016-06-02T00:19:29.289Z,996.31
2016-06-02T00:20:29.323Z,996.29
2016-06-02T00:21:29.358Z,996.27
2016-06-02T00:22:29.407Z,996.28
2016-06-02T00:23:29.441Z,996.27
2016-06-02T00:24:29.491Z,996.24
2016-06-02T00:25:29.540Z,996.23
2016-06-02T00:26:29.574Z,996.23
2016-06-02T00:27:29.608Z,996.21
2016-06-02T00:28:29.657Z,996.2
2016-06-02T00:29:29.692Z,996.17
2016-06-02T00:30:29.725Z,996.17
2016-06-02T00:31:29.774Z,996.13
2016-06-02T00:32:29.809Z,996.12
2016-06-02T00:33:29.858Z,996.1
2016-06-02T00:34:29.908Z,996.08
2016-06-02T00:35:29.942Z,996.02
2016-06-02T00:36:29.991Z,996.02
2016-06-02T00:37:30.026Z,995.97
2016-06-02T00:38:30.060Z,995.94
2016-06-02T00:39:30.109Z,995.97
2016-06-02T00:40:30.143Z,995.98
2016-06-02T00:41:30.176Z,995.98
2016-06-02T00:42:30.226Z,995.95
2016-06-02T00:43:30.292Z,995.98
2016-06-02T00:44:30.310Z,995.92
2016-06-02T00:45:30.344Z,995.88
2016-06-02T00:46:30.393Z,995.86
2016-06-02T00:47:30.428Z,995.86
2016-06-02T00:48:30.477Z,995.85
2016-06-02T00:49:30.511Z,995.86
2016-06-02T00:50:30.561Z,995.86
2016-06-02T00:51:30.595Z,995.88
2016-06-02T00:52:30.644Z,995.92
2016-06-02T00:53:30.678Z,995.92
2016-06-02T00:54:30.728Z,995.9
2016-06-02T00:55:30.886Z,995.88
2016-06-02T00:56:30.795Z,995.86
2016-06-02T00:57:30.876Z,995.83
2016-06-02T00:58:30.879Z,995.83
2016-06-02T00:59:30.928Z,995.82
2016-06-02T01:00:30.963Z,995.85
2016-06-02T01:01:31.012Z,995.83
2016-06-02T01:02:31.046Z,995.85
2016-06-02T01:03:31.096Z,995.86
2016-06-02T01:04:31.145Z,995.84
2016-06-02T01:05:31.163Z,995.83
2016-06-02T01:06:31.213Z,995.82
2016-06-02T01:07:31.246Z,995.86
2016-06-02T01:08:31.296Z,995.88
2016-06-02T01:09:31.330Z,995.88
2016-06-02T01:10:31.379Z,995.87
2016-06-02T01:11:31.414Z,995.94
2016-06-02T01:12:31.463Z,995.97
2016-06-02T01:13:31.498Z,996.01
2016-06-02T01:14:31.532Z,996.02
2016-06-02T01:15:31.659Z,996.02
2016-06-02T01:16:31.615Z,996.03
2016-06-02T01:17:31.665Z,996.08
2016-06-02T01:18:31.714Z,996.07
2016-06-02T01:19:31.748Z,996.07
2016-06-02T01:20:31.782Z,996.13
2016-06-02T01:21:31.831Z,996.16
2016-06-02T01:22:31.881Z,996.13
2016-06-02T01:23:31.915Z,996.13
2016-06-02T01:24:31.950Z,996.14
2016-06-02T01:25:31.983Z,996.15
2016-06-02T01:26:32.033Z,996.11
2016-06-02T01:27:32.067Z,996.14
2016-06-02T01:28:32.116Z,996.17
2016-06-02T01:29:32.150Z,996.14
2016-06-02T01:30:32.200Z,996.11
2016-06-02T01:31:32.233Z,996.09
2016-06-02T01:32:32.283Z,996.12
2016-06-02T01:33:32.333Z,996.08
2016-06-02T01:34:32.366Z,996.08
2016-06-02T01:35:32.400Z,996.07
2016-06-02T01:36:32.450Z,996.05
2016-06-02T01:37:32.484Z,996.05
2016-06-02T01:38:32.533Z,996
2016-06-02T01:39:32.724Z,996.01
2016-06-02T01:40:32.618Z,995.99
2016-06-02T01:41:32.651Z,995.97
2016-06-02T01:42:32.701Z,995.96
2016-06-02T01:43:32.735Z,995.97
2016-06-02T01:44:32.815Z,996.01
2016-06-02T01:45:32.818Z,995.98
2016-06-02T01:46:32.867Z,995.99
2016-06-02T01:47:32.901Z,996.01
2016-06-02T01:48:32.935Z,995.99
2016-06-02T01:49:32.984Z,995.98
2016-06-02T01:50:33.019Z,995.96
2016-06-02T01:51:33.068Z,996
2016-06-02T01:52:33.103Z,995.98
2016-06-02T01:53:33.152Z,995.96
2016-06-02T01:54:33.186Z,995.94
2016-06-02T01:55:33.250Z,995.92
2016-06-02T01:56:33.270Z,995.89
2016-06-02T01:57:33.318Z,995.9
2016-06-02T01:58:33.353Z,995.91
2016-06-02T01:59:33.386Z,995.87
2016-06-02T02:00:33.436Z,995.88
2016-06-02T02:01:33.485Z,995.83
2016-06-02T02:02:33.551Z,995.8
2016-06-02T02:03:33.554Z,995.83
2016-06-02T02:04:33.603Z,995.83
2016-06-02T02:05:33.637Z,995.8
2016-06-02T02:06:33.687Z,995.78
2016-06-02T02:07:33.720Z,995.81
2016-06-02T02:08:33.771Z,995.77
2016-06-02T02:09:33.805Z,995.8
2016-06-02T02:10:34.432Z,995.83
2016-06-02T02:11:33.888Z,995.8
2016-06-02T02:12:33.938Z,995.82
2016-06-02T02:13:33.987Z,995.81
2016-06-02T02:14:34.020Z,995.85
2016-06-02T02:15:34.054Z,995.83
2016-06-02T02:16:34.104Z,995.83
2016-06-02T02:17:34.138Z,995.88
2016-06-02T02:18:34.172Z,995.92
2016-06-02T02:19:34.222Z,995.91
2016-06-02T02:20:34.255Z,995.93
2016-06-02T02:21:34.321Z,995.86
2016-06-02T02:22:34.339Z,995.89
2016-06-02T02:23:34.389Z,995.91
2016-06-02T02:24:34.422Z,995.85
2016-06-02T02:25:34.473Z,995.82
2016-06-02T02:26:34.505Z,995.87
2016-06-02T02:27:34.555Z,995.85
2016-06-02T02:28:34.590Z,995.88
2016-06-02T02:29:34.639Z,995.88
2016-06-02T02:30:34.672Z,995.89
2016-06-02T02:31:34.707Z,995.88
2016-06-02T02:32:34.757Z,995.91
2016-06-02T02:33:34.791Z,995.82
2016-06-02T02:34:34.840Z,995.81
2016-06-02T02:35:34.874Z,995.78
2016-06-02T02:36:34.924Z,995.82
2016-06-02T02:37:34.958Z,995.8
2016-06-02T02:38:34.991Z,995.78
2016-06-02T02:39:35.040Z,995.81
2016-06-02T02:40:35.075Z,995.8
2016-06-02T02:41:35.124Z,995.78
2016-06-02T02:42:35.159Z,995.78
2016-06-02T02:43:35.207Z,995.74
2016-06-02T02:44:35.242Z,995.75
2016-06-02T02:45:35.292Z,995.78
2016-06-02T02:46:35.340Z,995.76
2016-06-02T02:47:35.376Z,995.73
2016-06-02T02:48:35.409Z,995.73
2016-06-02T02:49:35.442Z,995.75
2016-06-02T02:50:35.493Z,995.72
2016-06-02T02:51:35.542Z,995.69
2016-06-02T02:52:35.576Z,995.7
2016-06-02T02:53:35.609Z,995.71
2016-06-02T02:54:35.659Z,995.63
2016-06-02T02:55:35.694Z,995.64
2016-06-02T02:56:35.728Z,995.67
2016-06-02T02:57:35.808Z,995.67
2016-06-02T02:58:35.811Z,995.65
2016-06-02T02:59:35.861Z,995.61
2016-06-02T03:00:35.894Z,995.62
2016-06-02T03:01:35.944Z,995.57
2016-06-02T03:02:35.994Z,995.6
2016-06-02T03:03:36.028Z,995.57
2016-06-02T03:04:36.061Z,995.56
2016-06-02T03:05:36.110Z,995.55
2016-06-02T03:06:36.144Z,995.58
2016-06-02T03:07:36.179Z,995.57
2016-06-02T03:08:36.229Z,995.55
2016-06-02T03:09:36.263Z,995.48
2016-06-02T03:10:36.312Z,995.5
2016-06-02T03:11:36.362Z,995.45
2016-06-02T03:12:36.396Z,995.46
2016-06-02T03:13:36.430Z,995.48
2016-06-02T03:14:36.479Z,995.43
2016-06-02T03:15:36.544Z,995.43
2016-06-02T03:16:36.562Z,995.42
2016-06-02T03:17:36.596Z,995.4
2016-06-02T03:18:36.645Z,995.41
2016-06-02T03:19:36.679Z,995.38
2016-06-02T03:20:36.714Z,995.39
2016-06-02T03:21:36.764Z,995.39
2016-06-02T03:22:36.812Z,995.38
2016-06-02T03:23:36.847Z,995.41
2016-06-02T03:24:36.881Z,995.38
2016-06-02T03:25:37.383Z,995.42
2016-06-02T03:26:36.980Z,995.4
2016-06-02T03:27:37.014Z,995.42
2016-06-02T03:28:37.072Z,995.39
2016-06-02T03:29:37.131Z,995.41
2016-06-02T03:30:37.206Z,995.41
2016-06-02T03:31:37.281Z,995.42
2016-06-02T03:32:37.340Z,995.41
2016-06-02T03:33:37.399Z,995.44
2016-06-02T03:34:37.444Z,995.44
2016-06-02T03:35:37.502Z,995.5
2016-06-02T03:36:37.545Z,995.54
2016-06-02T03:37:37.588Z,995.54
2016-06-02T03:38:37.642Z,995.58
2016-06-02T03:39:37.756Z,995.6
2016-06-02T03:40:37.731Z,995.6
2016-06-02T03:41:37.768Z,995.53
2016-06-02T03:42:37.820Z,995.61
2016-06-02T03:43:37.855Z,995.62
2016-06-02T03:44:37.937Z,995.62
2016-06-02T03:45:37.941Z,995.68
2016-06-02T03:46:37.976Z,995.72
2016-06-02T03:47:38.028Z,995.76
2016-06-02T03:48:38.062Z,995.8
2016-06-02T03:49:38.112Z,995.86
2016-06-02T03:50:38.146Z,995.88
2016-06-02T03:51:38.180Z,995.94
2016-06-02T03:52:38.230Z,996.02
2016-06-02T03:53:38.280Z,996.09
2016-06-02T03:54:38.314Z,996.18
2016-06-02T03:55:38.380Z,996.25
2016-06-02T03:56:38.399Z,996.31
2016-06-02T03:57:38.434Z,996.38
2016-06-02T03:58:38.482Z,996.45
2016-06-02T03:59:38.517Z,996.5
2016-06-02T04:00:38.566Z,996.56
2016-06-02T04:01:38.601Z,996.59
2016-06-02T04:02:38.650Z,996.65
2016-06-02T04:03:38.684Z,996.72
2016-06-02T04:04:38.717Z,996.72
2016-06-02T04:05:38.767Z,996.75
2016-06-02T04:06:38.833Z,996.76
2016-06-02T04:07:38.851Z,996.77
2016-06-02T04:08:38.884Z,996.81
2016-06-02T04:09:38.934Z,996.87
2016-06-02T04:10:39.030Z,996.87
2016-06-02T04:11:39.017Z,996.86
2016-06-02T04:12:39.051Z,996.91
2016-06-02T04:13:39.101Z,996.9
2016-06-02T04:14:39.135Z,996.96
2016-06-02T04:15:39.169Z,996.97
2016-06-02T04:16:39.218Z,997
2016-06-02T04:17:39.252Z,997.02
2016-06-02T04:18:39.302Z,997.09
2016-06-02T04:19:39.335Z,997.08
2016-06-02T04:20:39.385Z,997.08
2016-06-02T04:21:39.419Z,997.1
2016-06-02T04:22:39.469Z,997.13
2016-06-02T04:23:39.503Z,997.1
2016-06-02T04:24:39.552Z,997.08
2016-06-02T04:25:40.009Z,997.09
2016-06-02T04:26:39.620Z,997.11
2016-06-02T04:27:39.670Z,997.05
2016-06-02T04:28:39.704Z,997.07
2016-06-02T04:29:39.754Z,997.03
2016-06-02T04:30:39.788Z,996.99
2016-06-02T04:31:39.868Z,997
2016-06-02T04:32:39.870Z,996.95
2016-06-02T04:33:39.905Z,996.95
2016-06-02T04:34:39.954Z,996.93
2016-06-02T04:35:39.988Z,996.9
2016-06-02T04:36:40.038Z,996.88
2016-06-02T04:37:40.087Z,996.85
2016-06-02T04:38:40.122Z,996.88
2016-06-02T04:39:40.171Z,996.85
2016-06-02T04:40:40.252Z,996.83
2016-06-02T04:41:40.239Z,996.77
2016-06-02T04:42:40.273Z,996.76
2016-06-02T04:43:40.322Z,996.74
2016-06-02T04:44:40.356Z,996.7
2016-06-02T04:45:40.437Z,996.77
2016-06-02T04:46:40.441Z,996.75
2016-06-02T04:47:40.489Z,996.79
2016-06-02T04:48:40.524Z,996.81
2016-06-02T04:49:40.557Z,996.86
2016-06-02T04:50:40.607Z,996.87
2016-06-02T04:51:40.640Z,996.88
2016-06-02T04:52:40.690Z,996.9
2016-06-02T04:53:40.724Z,996.95
2016-06-02T04:54:40.774Z,996.96
2016-06-02T04:55:40.807Z,996.94
2016-06-02T04:56:40.842Z,996.95
2016-06-02T04:57:40.891Z,997
2016-06-02T04:58:40.940Z,996.95
2016-06-02T04:59:40.975Z,996.95
2016-06-02T05:00:41.009Z,996.97
2016-06-02T05:01:41.137Z,996.92
2016-06-02T05:02:41.093Z,996.96
2016-06-02T05:03:41.142Z,996.94
2016-06-02T05:04:41.176Z,996.9
2016-06-02T05:05:41.225Z,996.92
2016-06-02T05:06:41.259Z,996.87
2016-06-02T05:07:41.308Z,996.86
2016-06-02T05:08:41.342Z,996.83
2016-06-02T05:09:41.377Z,996.82
2016-06-02T05:10:41.426Z,996.82
2016-06-02T05:11:41.460Z,996.81
2016-06-02T05:12:41.494Z,996.77
2016-06-02T05:13:41.544Z,996.76
2016-06-02T05:14:41.578Z,996.75
2016-06-02T05:15:41.627Z,996.77
2016-06-02T05:16:41.661Z,996.69
2016-06-02T05:17:41.710Z,996.74
2016-06-02T05:18:41.745Z,996.72
2016-06-02T05:19:41.794Z,996.7
2016-06-02T05:20:41.843Z,996.73
2016-06-02T05:21:42.238Z,996.71
2016-06-02T05:22:42.490Z,996.7
2016-06-02T05:23:42.165Z,996.68
2016-06-02T05:24:51.385Z,996.64
2016-06-02T05:25:42.341Z,996.64
2016-06-02T05:26:42.094Z,996.58
2016-06-02T05:27:42.160Z,996.57
2016-06-02T05:28:42.287Z,996.55
2016-06-02T05:29:42.321Z,996.51
2016-06-02T05:30:42.355Z,996.45
2016-06-02T05:31:42.576Z,996.39
2016-06-02T05:32:42.439Z,996.33
2016-06-02T05:33:42.504Z,996.32
2016-06-02T05:34:42.929Z,996.32
2016-06-02T05:35:42.697Z,996.38
2016-06-02T05:36:42.762Z,996.39
2016-06-02T05:37:42.921Z,996.49
2016-06-02T05:38:42.783Z,996.51
2016-06-02T05:39:42.754Z,996.58
2016-06-02T05:40:43.211Z,996.56
2016-06-02T05:41:42.853Z,996.57
2016-06-02T05:42:42.887Z,996.56
2016-06-02T05:43:42.999Z,996.57
2016-06-02T05:44:42.971Z,996.55
2016-06-02T05:45:42.988Z,996.53
2016-06-02T05:46:43.445Z,996.54
2016-06-02T05:47:43.148Z,996.55
2016-06-02T05:48:42.979Z,996.58
2016-06-02T05:49:43.294Z,996.58
2016-06-02T05:50:43.156Z,996.57
2016-06-02T05:51:43.443Z,996.6
2016-06-02T05:52:43.411Z,996.61
2016-06-02T05:53:43.320Z,996.61
2016-06-02T05:54:43.544Z,996.62
2016-06-02T05:55:43.294Z,996.58
2016-06-02T05:56:43.454Z,996.62
2016-06-02T05:57:43.471Z,996.58
2016-06-02T05:58:43.459Z,996.52
2016-06-02T05:59:43.587Z,996.49
2016-06-02T06:00:43.730Z,996.52
2016-06-02T06:01:43.592Z,996.44
2016-06-02T06:02:43.563Z,996.46
2016-06-02T06:03:43.613Z,996.45
2016-06-02T06:04:43.834Z,996.43
2016-06-02T06:05:43.946Z,996.4
2016-06-02T06:06:44.011Z,996.38
2016-06-02T06:07:43.874Z,996.37
2016-06-02T06:08:43.861Z,996.34
2016-06-02T06:09:43.848Z,996.33
2016-06-02T06:10:43.882Z,996.35
2016-06-02T06:11:43.931Z,996.32
2016-06-02T06:12:43.965Z,996.3
2016-06-02T06:13:44.015Z,996.24
2016-06-02T06:14:44.814Z,996.25
2016-06-02T06:15:44.552Z,996.28
2016-06-02T06:16:44.445Z,996.23
2016-06-02T06:17:44.588Z,996.26
2016-06-02T06:18:44.341Z,996.28
2016-06-02T06:19:47.469Z,996.27
2016-06-02T06:20:44.597Z,996.32
2016-06-02T06:21:44.944Z,996.3
2016-06-02T06:22:44.523Z,996.32
2016-06-02T06:23:44.542Z,996.35
2016-06-02T06:24:44.920Z,996.41
2016-06-02T06:25:44.594Z,996.42
2016-06-02T06:26:44.550Z,996.4
2016-06-02T06:27:44.663Z,996.46
2016-06-02T06:28:44.633Z,996.49
2016-06-02T06:29:44.793Z,996.52
2016-06-02T06:30:44.764Z,996.57
2016-06-02T06:31:44.798Z,996.51
2016-06-02T06:32:44.801Z,996.53
2016-06-02T06:33:44.835Z,996.58
2016-06-02T06:34:44.884Z,996.59
2016-06-02T06:35:44.918Z,996.59
2016-06-02T06:36:44.968Z,996.64
2016-06-02T06:37:45.112Z,996.64
2016-06-02T06:38:45.082Z,996.6
2016-06-02T06:39:45.101Z,996.65
2016-06-02T06:40:45.134Z,996.61
2016-06-02T06:41:45.184Z,996.63
2016-06-02T06:42:45.343Z,996.66
2016-06-02T06:43:45.298Z,996.7
2016-06-02T06:44:45.301Z,996.7
2016-06-02T06:45:45.350Z,996.76
2016-06-02T06:46:45.432Z,996.78
2016-06-02T06:47:45.434Z,996.8
2016-06-02T06:48:45.484Z,996.77
2016-06-02T06:49:45.518Z,996.78
2016-06-02T06:50:45.567Z,996.77
2016-06-02T06:51:45.883Z,996.76
2016-06-02T06:52:45.651Z,996.78
2016-06-02T06:53:45.700Z,996.78
2016-06-02T06:54:45.735Z,996.75
2016-06-02T06:55:45.785Z,996.76
2016-06-02T06:56:45.818Z,996.71
2016-06-02T06:57:45.868Z,996.68
2016-06-02T06:58:45.917Z,996.68
2016-06-02T06:59:46.123Z,996.66
2016-06-02T07:00:46.001Z,996.68
2016-06-02T07:01:46.082Z,996.64
2016-06-02T07:02:46.209Z,996.59
2016-06-02T07:03:46.134Z,996.55
2016-06-02T07:04:46.324Z,996.51
2016-06-02T07:05:46.404Z,996.49
2016-06-02T07:06:46.298Z,996.47
2016-06-02T07:07:47.284Z,996.49
2016-06-02T07:08:46.647Z,996.44
2016-06-02T07:09:46.572Z,996.43
2016-06-02T07:10:46.809Z,996.41
2016-06-02T07:11:46.467Z,996.39
2016-06-02T07:12:46.627Z,996.39
2016-06-02T07:13:46.567Z,996.42
2016-06-02T07:14:46.600Z,996.41
2016-06-02T07:15:46.651Z,996.41
2016-06-02T07:16:46.716Z,996.43
2016-06-02T07:17:46.906Z,996.4
2016-06-02T07:18:46.847Z,996.37
2016-06-02T07:19:46.928Z,996.41
2016-06-02T07:20:46.866Z,996.37
2016-06-02T07:21:46.901Z,996.41
2016-06-02T07:22:47.311Z,996.42
2016-06-02T07:23:47.375Z,996.44
2016-06-02T07:24:47.222Z,996.46
2016-06-02T07:25:47.522Z,996.46
2016-06-02T07:26:47.446Z,996.46
2016-06-02T07:27:47.152Z,996.43
2016-06-02T07:28:47.295Z,996.45
2016-06-02T07:29:47.376Z,996.45
2016-06-02T07:30:47.300Z,996.42
2016-06-02T07:31:47.428Z,996.39
2016-06-02T07:32:47.587Z,996.4
2016-06-02T07:33:47.543Z,996.43
2016-06-02T07:34:47.811Z,996.41
2016-06-02T07:35:47.502Z,996.39
2016-06-02T07:36:47.535Z,996.41
2016-06-02T07:37:48.273Z,996.43
2016-06-02T07:38:47.618Z,996.48
2016-06-02T07:39:47.668Z,996.41
2016-06-02T07:40:47.921Z,996.39
2016-06-02T07:41:47.752Z,996.42
2016-06-02T07:42:48.957Z,996.42
2016-06-02T07:43:47.835Z,996.4
2016-06-02T07:44:47.884Z,996.4
2016-06-02T07:45:47.981Z,996.37
2016-06-02T07:46:47.968Z,996.42
2016-06-02T07:47:48.018Z,996.4
2016-06-02T07:48:48.053Z,996.39
2016-06-02T07:49:48.086Z,996.4
2016-06-02T07:50:48.183Z,996.38
2016-06-02T07:51:48.185Z,996.39
2016-06-02T07:52:48.219Z,996.35
2016-06-02T07:53:48.269Z,996.37
2016-06-02T07:54:48.303Z,996.37
2016-06-02T07:55:48.352Z,996.35
2016-06-02T07:56:48.386Z,996.35
2016-06-02T07:57:48.435Z,996.31
2016-06-02T07:58:48.485Z,996.31
2016-06-02T07:59:48.550Z,996.33
2016-06-02T08:00:48.569Z,996.32
2016-06-02T08:01:48.603Z,996.31
2016-06-02T08:02:48.652Z,996.35
2016-06-02T08:03:48.701Z,996.37
2016-06-02T08:04:49.063Z,996.33
2016-06-02T08:05:48.894Z,996.37
2016-06-02T08:06:49.271Z,996.34
2016-06-02T08:07:49.619Z,996.37
2016-06-02T08:08:49.731Z,996.39
2016-06-02T08:09:49.264Z,996.41
2016-06-02T08:10:49.924Z,996.4
2016-06-02T08:11:50.285Z,996.4
2016-06-02T08:12:49.600Z,996.35
2016-06-02T08:13:49.588Z,996.35
2016-06-02T08:14:49.793Z,996.35
2016-06-02T08:15:49.936Z,996.33
2016-06-02T08:16:50.283Z,996.35
2016-06-02T08:17:49.676Z,996.33
2016-06-02T08:18:49.820Z,996.28
2016-06-02T08:19:50.197Z,996.34
2016-06-02T08:20:49.685Z,996.33
2016-06-02T08:21:49.656Z,996.31
2016-06-02T08:22:49.737Z,996.3
2016-06-02T08:23:50.052Z,996.32
2016-06-02T08:24:50.055Z,996.3
2016-06-02T08:25:49.980Z,996.32
2016-06-02T08:26:50.326Z,996.31
2016-06-02T08:27:50.250Z,996.31
2016-06-02T08:28:50.113Z,996.29
2016-06-02T08:29:50.224Z,996.31
2016-06-02T08:30:50.321Z,996.3
2016-06-02T08:31:50.277Z,996.3
2016-06-02T08:32:50.108Z,996.27
2016-06-02T08:33:50.579Z,996.29
2016-06-02T08:34:50.660Z,996.25
2016-06-02T08:35:50.710Z,996.25
2016-06-02T08:36:50.369Z,996.25
2016-06-02T08:37:50.184Z,996.23
2016-06-02T08:38:50.482Z,996.23
2016-06-02T08:39:50.360Z,996.15
2016-06-02T08:40:50.442Z,996.19
2016-06-02T08:41:51.131Z,996.14
2016-06-02T08:42:50.400Z,996.18
2016-06-02T08:43:50.637Z,996.14
2016-06-02T08:44:50.733Z,996.21
2016-06-02T08:45:50.720Z,996.17
2016-06-02T08:46:51.004Z,996.24
2016-06-02T08:47:50.914Z,996.21
2016-06-02T08:48:51.056Z,996.21
2016-06-02T08:49:51.153Z,996.22
2016-06-02T08:50:51.234Z,996.2
2016-06-02T08:51:51.158Z,996.2
2016-06-02T08:52:51.678Z,996.22
2016-06-02T08:53:51.273Z,996.18
2016-06-02T08:54:51.917Z,996.16
2016-06-02T08:55:54.453Z,996.16
2016-06-02T08:56:51.906Z,996.2
2016-06-02T08:57:52.002Z,996.17
2016-06-02T08:58:51.911Z,996.16
2016-06-02T08:59:55.136Z,996.14
2016-06-02T09:00:51.933Z,996.12
2016-06-02T09:01:51.874Z,996.14
2016-06-02T09:02:52.047Z,996.12
2016-06-02T09:03:51.566Z,996.15
2016-06-02T09:04:51.537Z,996.15
2016-06-02T09:05:52.619Z,996.13
2016-06-02T09:06:51.527Z,996.17
2016-06-02T09:07:52.327Z,996.16
2016-06-02T09:08:52.471Z,996.21
2016-06-02T09:09:53.145Z,996.22
2016-06-02T09:10:52.538Z,996.23
2016-06-02T09:11:53.447Z,996.23
2016-06-02T09:12:52.371Z,996.25
2016-06-02T09:13:53.014Z,996.29
2016-06-02T09:14:52.189Z,996.26
2016-06-02T09:15:51.865Z,996.28
2016-06-02T09:16:52.257Z,996.27
2016-06-02T09:17:52.135Z,996.28
2016-06-02T09:18:52.481Z,996.32
2016-06-02T09:19:52.281Z,996.31
2016-06-02T09:20:52.425Z,996.32
2016-06-02T09:21:52.192Z,996.32
2016-06-02T09:22:52.181Z,996.33
2016-06-02T09:23:52.214Z,996.32
2016-06-02T09:24:52.389Z,996.33
2016-06-02T09:25:52.297Z,996.26
2016-06-02T09:26:52.361Z,996.29
2016-06-02T09:27:52.397Z,996.27
2016-06-02T09:28:52.556Z,996.23
2016-06-02T09:29:52.480Z,996.24
2016-06-02T09:30:53.170Z,996.25
2016-06-02T09:31:52.610Z,996.22
2016-06-02T09:32:52.613Z,996.2
2016-06-02T09:33:52.663Z,996.18
2016-06-02T09:34:52.712Z,996.17
2016-06-02T09:35:52.761Z,996.15
2016-06-02T09:36:52.811Z,996.16
2016-06-02T09:37:52.846Z,996.15
2016-06-02T09:38:52.941Z,996.15
2016-06-02T09:39:52.944Z,996.1
2016-06-02T09:40:53.165Z,996.11
2016-06-02T09:41:53.028Z,996.07
2016-06-02T09:42:53.077Z,996.06
2016-06-02T09:43:53.127Z,996.1
2016-06-02T09:44:53.160Z,996.1
2016-06-02T09:45:53.242Z,996.16
2016-06-02T09:46:53.322Z,996.19
2016-06-02T09:47:53.310Z,996.19
2016-06-02T09:48:53.343Z,996.26
2016-06-02T09:49:53.393Z,996.29
2016-06-02T09:50:53.427Z,996.26
2016-06-02T09:51:53.492Z,996.24
2016-06-02T09:52:53.526Z,996.31
2016-06-02T09:53:53.575Z,996.33
2016-06-02T09:54:53.610Z,996.37
2016-06-02T09:55:53.659Z,996.37
2016-06-02T09:56:53.709Z,996.35
2016-06-02T09:57:53.758Z,996.38
2016-06-02T09:58:53.792Z,996.43
2016-06-02T09:59:53.842Z,996.41
2016-06-02T10:00:53.923Z,996.41
2016-06-02T10:01:53.941Z,996.43
2016-06-02T10:02:53.975Z,996.44
2016-06-02T10:03:54.041Z,996.46
2016-06-02T10:04:54.089Z,996.38
2016-06-02T10:05:54.124Z,996.37
2016-06-02T10:06:54.174Z,996.37
2016-06-02T10:07:54.207Z,996.34
2016-06-02T10:08:54.257Z,996.37
2016-06-02T10:09:54.306Z,996.37
2016-06-02T10:10:54.356Z,996.32
2016-06-02T10:11:54.390Z,996.33
2016-06-02T10:12:54.439Z,996.38
2016-06-02T10:13:54.488Z,996.39
2016-06-02T10:14:54.538Z,996.35
2016-06-02T10:15:54.588Z,996.35
2016-06-02T10:16:54.637Z,996.38
2016-06-02T10:17:54.687Z,996.38
2016-06-02T10:18:54.720Z,996.4
2016-06-02T10:19:54.771Z,996.31
2016-06-02T10:20:54.914Z,996.36
2016-06-02T10:21:54.854Z,996.42
2016-06-02T10:22:55.107Z,996.39
2016-06-02T10:23:54.970Z,996.39
2016-06-02T10:24:55.190Z,996.39
2016-06-02T10:25:55.084Z,996.39
2016-06-02T10:26:55.086Z,996.4
2016-06-02T10:27:55.137Z,996.39
2016-06-02T10:28:55.185Z,996.36
2016-06-02T10:29:55.251Z,996.34
2016-06-02T10:30:55.269Z,996.33
2016-06-02T10:31:55.334Z,997.11
2016-06-02T10:32:55.368Z,997.15
2016-06-02T10:33:55.417Z,997.16
2016-06-02T10:34:55.467Z,997.2
2016-06-02T10:35:55.502Z,997.23
2016-06-02T10:36:55.550Z,997.18
2016-06-02T10:37:55.600Z,997.17
2016-06-02T10:38:55.681Z,996.66
2016-06-02T10:39:55.699Z,996.41
2016-06-02T10:40:55.874Z,996.41
2016-06-02T10:41:55.798Z,996.4
2016-06-02T10:42:55.848Z,996.45
2016-06-02T10:43:55.898Z,996.57
2016-06-02T10:44:55.947Z,997.16
2016-06-02T10:45:55.996Z,997.13
2016-06-02T10:46:56.046Z,997.19
2016-06-02T10:47:56.096Z,997.12
2016-06-02T10:48:56.146Z,997.18
2016-06-02T10:49:56.195Z,997.13
2016-06-02T10:50:56.245Z,997.12
2016-06-02T10:51:56.373Z,997.11
2016-06-02T10:52:56.438Z,997.11
2016-06-02T10:53:56.409Z,997.15
2016-06-02T10:54:56.459Z,997.11
2016-06-02T10:55:56.523Z,997.12
2016-06-02T10:56:56.573Z,997.04
2016-06-02T10:57:56.622Z,997.08
2016-06-02T10:58:56.689Z,997.07
2016-06-02T10:59:57.925Z,997.06
2016-06-02T11:00:56.787Z,997.07
2016-06-02T11:01:56.961Z,997.05
2016-06-02T11:02:56.902Z,997.04
2016-06-02T11:03:56.967Z,997.06
2016-06-02T11:04:57.048Z,997.06
2016-06-02T11:05:57.128Z,997.06
2016-06-02T11:06:57.178Z,997.04
2016-06-02T11:07:57.213Z,997.02
2016-06-02T11:08:57.262Z,997.04
2016-06-02T11:09:57.343Z,997.03
2016-06-02T11:10:57.391Z,997
2016-06-02T11:11:57.441Z,996.99
2016-06-02T11:12:57.694Z,996.95
2016-06-02T11:13:57.587Z,996.98
2016-06-02T11:14:57.763Z,996.98
2016-06-02T11:15:57.921Z,996.98
2016-06-02T11:16:58.846Z,996.96
2016-06-02T11:17:58.208Z,996.99
2016-06-02T11:18:58.180Z,996.98
2016-06-02T11:19:58.166Z,996.59
2016-06-02T11:20:58.465Z,996.39
2016-06-02T11:21:58.125Z,996.47
2016-06-02T11:22:58.096Z,997
2016-06-02T11:23:58.146Z,996.9
2016-06-02T11:24:58.461Z,996.95
2016-06-02T11:25:58.276Z,996.97
2016-06-02T11:26:58.325Z,997
2016-06-02T11:27:58.406Z,997.01
2016-06-02T11:28:58.472Z,996.98
2016-06-02T11:29:58.600Z,997.03
2016-06-02T11:30:58.759Z,996.46
2016-06-02T11:31:58.620Z,997.04
2016-06-02T11:32:58.685Z,997.05
2016-06-02T11:33:58.751Z,997.06
2016-06-02T11:34:58.800Z,997.02
2016-06-02T11:35:58.897Z,996.97
2016-06-02T11:36:59.041Z,996.82
2016-06-02T11:37:59.074Z,997.03
2016-06-02T11:38:59.077Z,997.07
2016-06-02T11:39:59.127Z,997.08
2016-06-02T11:40:59.176Z,996.64
2016-06-02T11:41:59.460Z,996.91
2016-06-02T11:42:59.463Z,997.06
2016-06-02T11:43:59.435Z,997.14
2016-06-02T11:44:59.421Z,997.14
2016-06-02T11:45:59.955Z,997.13
2016-06-02T11:46:59.552Z,996.42
2016-06-02T11:47:59.616Z,996.27
2016-06-02T11:48:59.682Z,996.34
2016-06-02T11:49:59.731Z,996.25
2016-06-02T11:50:59.796Z,996.23
2016-06-02T11:51:59.862Z,996.26
2016-06-02T11:52:59.927Z,996.31
2016-06-02T11:53:59.977Z,996.43
2016-06-02T11:55:00.026Z,996.88
2016-06-02T11:56:00.748Z,996.59
2016-06-02T11:57:00.141Z,997
2016-06-02T11:58:00.206Z,996.97
2016-06-02T11:59:00.271Z,996.33
2016-06-02T12:00:00.320Z,996.53
2016-06-02T12:01:00.371Z,996.21
2016-06-02T12:02:00.436Z,996.11
2016-06-02T12:03:00.501Z,997.11
2016-06-02T12:04:00.550Z,997.13
2016-06-02T12:05:00.647Z,997.14
2016-06-02T12:06:00.711Z,997.1
2016-06-02T12:07:01.011Z,997.12
2016-06-02T12:08:01.202Z,996.52
2016-06-02T12:09:00.830Z,996.25
2016-06-02T12:10:01.020Z,996.22
2016-06-02T12:11:01.444Z,996.23
2016-06-02T12:12:01.290Z,996.25
2016-06-02T12:13:01.075Z,996.25
2016-06-02T12:14:01.186Z,996.19
2016-06-02T12:15:01.236Z,996.2
2016-06-02T12:16:01.239Z,996.3
2016-06-02T12:17:01.288Z,997.09
2016-06-02T12:18:01.354Z,997.05
2016-06-02T12:19:01.434Z,997.03
2016-06-02T12:20:01.452Z,996.95
2016-06-02T12:21:01.518Z,996.97
2016-06-02T12:22:01.568Z,996.95
2016-06-02T12:23:01.648Z,996.97
2016-06-02T12:24:01.682Z,997
2016-06-02T12:25:01.748Z,996.97
2016-06-02T12:26:01.813Z,996.9
2016-06-02T12:27:01.862Z,996.87
2016-06-02T12:28:01.928Z,996.84
2016-06-02T12:29:02.040Z,996.79
2016-06-02T12:30:02.042Z,996.76
2016-06-02T12:31:02.107Z,996.79
2016-06-02T12:32:02.188Z,996.79